Time;durP1;ratioP1;P1;durP2;ratioP2;P2;SDS_P1;SDS_P2;PMS_P1;PMS_P2;Temp;Humidity;BMP_temperature;BMP_pressure;BME280_temperature;BME280_humidity;BME280_pressure;Samples;Min_cycle;Max_cycle;Signal;HPM_P1;HPM_P2
2023/08/20 00:01:10;;;;;;;34.40;28.58;;;20.80;99.90;;;;;;5073962;28;20305;-79
2023/08/20 00:03:37;;;;;;;40.63;33.08;;;20.90;99.90;;;;;;5074352;28;20199;-79
2023/08/20 00:06:05;;;;;;;30.92;24.38;;;20.80;99.90;;;;;;5075507;28;20216;-79
2023/08/20 00:08:31;;;;;;;33.20;27.95;;;20.90;99.90;;;;;;5071264;28;20199;-79
2023/08/20 00:11:00;;;;;;;27.05;22.17;;;20.90;99.90;;;;;;5071783;28;20212;-80
2023/08/20 00:13:26;;;;;;;25.02;20.17;;;20.90;99.90;;;;;;5074338;28;20241;-79
2023/08/20 00:15:54;;;;;;;25.67;20.60;;;20.90;99.90;;;;;;5077623;28;20210;-80
2023/08/20 00:18:21;;;;;;;24.55;19.88;;;20.90;99.90;;;;;;5067446;28;20213;-80
2023/08/20 00:20:48;;;;;;;22.63;17.70;;;21.00;99.90;;;;;;5072325;28;20587;-79
2023/08/20 00:23:16;;;;;;;23.23;17.17;;;21.00;99.90;;;;;;5067440;28;20202;-79
2023/08/20 00:25:44;;;;;;;20.73;16.40;;;21.00;99.90;;;;;;5066657;28;20200;-79
2023/08/20 00:28:13;;;;;;;20.88;16.70;;;21.10;99.90;;;;;;5070989;28;20230;-79
2023/08/20 00:30:39;;;;;;;21.85;15.68;;;21.10;99.90;;;;;;5069401;28;20268;-78
2023/08/20 00:33:06;;;;;;;21.67;16.17;;;21.20;99.90;;;;;;5076327;28;20289;-78
2023/08/20 00:35:33;;;;;;;19.55;15.30;;;21.10;99.90;;;;;;5077811;28;20743;-78
2023/08/20 00:38:00;;;;;;;19.23;15.20;;;21.20;99.90;;;;;;5070515;28;20665;-80
2023/08/20 00:40:27;;;;;;;19.48;14.88;;;21.20;99.90;;;;;;5077449;28;20225;-80
2023/08/20 00:42:53;;;;;;;20.42;14.90;;;21.30;99.90;;;;;;5076119;28;20285;-80
2023/08/20 00:45:22;;;;;;;18.00;13.88;;;21.30;99.90;;;;;;5069884;28;20210;-79
2023/08/20 00:47:49;;;;;;;19.73;14.73;;;21.20;99.90;;;;;;5073506;28;20203;-79
2023/08/20 00:50:16;;;;;;;18.55;14.75;;;21.30;99.90;;;;;;5074669;28;20232;-80
2023/08/20 00:52:44;;;;;;;17.13;13.85;;;21.20;99.90;;;;;;5072901;28;20195;-80
2023/08/20 00:55:12;;;;;;;20.38;14.32;;;21.10;99.90;;;;;;5068813;28;20267;-80
2023/08/20 00:57:40;;;;;;;19.65;14.52;;;21.20;99.90;;;;;;5077555;28;20207;-82
2023/08/20 01:00:10;;;;;;;21.67;13.98;;;21.20;99.90;;;;;;5081387;28;20218;-81
2023/08/20 01:02:39;;;;;;;18.25;13.52;;;21.20;99.90;;;;;;5076048;28;20199;-79
2023/08/20 01:05:10;;;;;;;20.17;14.52;;;21.20;99.90;;;;;;5070203;28;20197;-80
2023/08/20 01:07:49;;;;;;;20.45;14.88;;;21.20;99.90;;;;;;5077164;28;20202;-80
2023/08/20 01:10:24;;;;;;;20.98;13.75;;;21.20;99.90;;;;;;5077507;28;20277;-80
2023/08/20 01:12:52;;;;;;;17.95;13.57;;;21.20;99.90;;;;;;5082248;28;20232;-80
2023/08/20 01:15:19;;;;;;;19.10;13.40;;;21.20;99.90;;;;;;5086593;28;20202;-80
2023/08/20 01:17:47;;;;;;;21.23;15.35;;;21.20;99.90;;;;;;5083972;28;20580;-80
2023/08/20 01:20:15;;;;;;;20.77;14.18;;;21.20;99.90;;;;;;5084028;28;20282;-81
2023/08/20 01:23:12;;;;;;;20.38;14.95;;;21.20;99.90;;;;;;5067820;28;20210;-79
2023/08/20 01:25:54;;;;;;;21.45;15.63;;;21.10;99.90;;;;;;5078290;28;20194;-80
2023/08/20 01:28:26;;;;;;;20.75;14.07;;;21.10;99.90;;;;;;5082458;28;20285;-79
2023/08/20 01:30:55;;;;;;;20.98;14.45;;;21.00;99.90;;;;;;5070649;28;20220;-80
2023/08/20 01:33:22;;;;;;;21.20;15.40;;;21.10;99.90;;;;;;5074057;28;20293;-79
2023/08/20 01:35:48;;;;;;;20.23;13.88;;;21.10;99.90;;;;;;5084899;28;20234;-80
2023/08/20 01:38:15;;;;;;;19.17;13.80;;;21.10;99.90;;;;;;5083670;28;20220;-81
2023/08/20 01:40:43;;;;;;;16.60;12.93;;;20.90;99.90;;;;;;5067808;28;20242;-80
2023/08/20 01:43:09;;;;;;;17.52;14.00;;;20.90;99.90;;;;;;5081803;28;20208;-80
2023/08/20 01:45:38;;;;;;;19.90;13.80;;;20.90;99.90;;;;;;5084985;28;20269;-80
2023/08/20 01:48:05;;;;;;;18.42;14.55;;;20.90;99.90;;;;;;5083323;28;20225;-80
2023/08/20 01:50:32;;;;;;;19.92;12.73;;;20.80;99.90;;;;;;5083393;28;20290;-80
2023/08/20 01:52:59;;;;;;;17.40;12.60;;;20.70;99.90;;;;;;5076816;28;20212;-79
2023/08/20 01:55:26;;;;;;;18.35;12.63;;;20.60;99.90;;;;;;5082840;28;20198;-80
2023/08/20 01:57:52;;;;;;;17.42;12.35;;;20.50;99.90;;;;;;5083831;28;20321;-78
2023/08/20 02:00:19;;;;;;;14.23;9.95;;;20.40;99.90;;;;;;5081780;28;20214;-78
2023/08/20 02:02:47;;;;;;;13.05;8.95;;;20.40;99.90;;;;;;5082600;28;20226;-79
2023/08/20 02:05:14;;;;;;;14.00;9.32;;;20.40;99.90;;;;;;5084192;28;20948;-80
2023/08/20 02:07:41;;;;;;;15.52;10.07;;;20.50;99.90;;;;;;5078502;28;20289;-78
2023/08/20 02:10:09;;;;;;;12.02;9.18;;;20.50;99.90;;;;;;5083108;28;20739;-79
2023/08/20 02:12:36;;;;;;;13.80;10.40;;;20.40;99.90;;;;;;5083539;28;20209;-80
2023/08/20 02:15:03;;;;;;;13.10;9.23;;;20.20;99.90;;;;;;5083350;28;20762;-79
2023/08/20 02:17:30;;;;;;;13.93;10.05;;;20.10;99.90;;;;;;5085530;28;20205;-80
2023/08/20 02:19:58;;;;;;;14.63;9.43;;;20.00;99.90;;;;;;5086287;28;20225;-79
2023/08/20 02:22:25;;;;;;;13.82;9.63;;;20.20;99.90;;;;;;5083919;28;20194;-79
2023/08/20 02:24:52;;;;;;;13.18;8.88;;;19.90;99.90;;;;;;5082130;28;20218;-79
2023/08/20 02:27:19;;;;;;;14.02;9.15;;;19.90;99.90;;;;;;5083529;28;20198;-80
2023/08/20 02:29:46;;;;;;;15.27;9.40;;;19.80;99.90;;;;;;5084927;28;20289;-80
2023/08/20 02:32:13;;;;;;;14.65;8.48;;;19.80;99.90;;;;;;5087174;28;20202;-79
2023/08/20 02:34:39;;;;;;;13.20;8.65;;;19.70;99.90;;;;;;5088024;28;20253;-79
2023/08/20 02:37:08;;;;;;;10.75;8.07;;;19.70;99.90;;;;;;5087452;28;20214;-78
2023/08/20 02:39:35;;;;;;;14.25;8.45;;;19.70;99.90;;;;;;5087608;28;20294;-79
2023/08/20 02:42:01;;;;;;;12.63;8.77;;;19.50;99.90;;;;;;5083655;28;20233;-78
2023/08/20 02:44:28;;;;;;;11.65;8.73;;;19.60;99.90;;;;;;5078381;28;20234;-78
2023/08/20 02:46:55;;;;;;;12.25;9.13;;;19.80;99.90;;;;;;5075166;28;20216;-77
2023/08/20 02:49:22;;;;;;;15.38;9.20;;;19.80;99.90;;;;;;5088033;28;20238;-79
2023/08/20 02:51:48;;;;;;;14.85;9.10;;;19.70;99.90;;;;;;5072661;28;20203;-79
2023/08/20 02:54:17;;;;;;;14.63;8.77;;;19.50;99.90;;;;;;5085607;28;20309;-81
2023/08/20 02:56:43;;;;;;;14.27;8.90;;;19.60;99.90;;;;;;5088683;28;20206;-81
2023/08/20 02:59:10;;;;;;;12.40;9.00;;;19.70;99.90;;;;;;5082646;28;20226;-80
2023/08/20 03:01:37;;;;;;;14.95;8.85;;;19.70;99.90;;;;;;5101407;28;20285;-80
2023/08/20 03:04:04;;;;;;;14.98;8.77;;;19.70;99.90;;;;;;5087657;28;20261;-80
2023/08/20 03:06:31;;;;;;;13.07;8.43;;;19.70;99.90;;;;;;5081108;28;20649;-80
2023/08/20 03:08:58;;;;;;;11.82;8.68;;;19.70;99.90;;;;;;5085608;28;20592;-80
2023/08/20 03:11:26;;;;;;;12.85;8.63;;;19.60;99.90;;;;;;5080172;28;20277;-80
2023/08/20 03:13:53;;;;;;;11.35;7.90;;;19.70;99.90;;;;;;5076352;28;20223;-80
2023/08/20 03:16:20;;;;;;;13.07;9.38;;;19.60;99.90;;;;;;5068124;28;20207;-80
2023/08/20 03:18:46;;;;;;;9.93;7.97;;;19.50;99.90;;;;;;5069839;28;20746;-80
2023/08/20 03:21:13;;;;;;;12.57;7.85;;;19.50;99.90;;;;;;5070351;28;20210;-79
2023/08/20 03:23:40;;;;;;;11.80;8.35;;;19.60;99.90;;;;;;5075872;28;20210;-79
2023/08/20 03:26:07;;;;;;;12.25;8.02;;;19.60;99.90;;;;;;5086345;28;20206;-80
2023/08/20 03:28:35;;;;;;;10.40;7.55;;;19.60;99.90;;;;;;5077608;28;20312;-80
2023/08/20 03:31:02;;;;;;;11.32;7.38;;;19.70;99.90;;;;;;5087831;28;20213;-78
2023/08/20 03:33:29;;;;;;;10.10;7.35;;;19.70;99.90;;;;;;5087775;28;20199;-80
2023/08/20 03:35:56;;;;;;;10.38;6.97;;;19.60;99.90;;;;;;5086707;28;20218;-80
2023/08/20 03:38:23;;;;;;;10.68;7.82;;;19.50;99.90;;;;;;5087033;28;20214;-79
2023/08/20 03:40:50;;;;;;;11.43;7.30;;;19.70;99.90;;;;;;5085098;28;20753;-80
2023/08/20 03:43:17;;;;;;;10.43;7.50;;;19.70;99.90;;;;;;5084709;28;20198;-80
2023/08/20 03:45:45;;;;;;;9.88;6.85;;;19.70;99.90;;;;;;5079356;28;20583;-80
2023/08/20 03:48:12;;;;;;;9.43;7.28;;;19.60;99.90;;;;;;5081029;28;20201;-80
2023/08/20 03:50:38;;;;;;;9.02;6.60;;;19.60;99.90;;;;;;5076758;28;20711;-79
2023/08/20 03:53:05;;;;;;;9.93;6.78;;;19.70;99.90;;;;;;5068620;28;20199;-79
2023/08/20 03:55:32;;;;;;;10.57;6.72;;;19.70;99.90;;;;;;5072736;28;20226;-80
2023/08/20 03:57:59;;;;;;;9.90;7.07;;;19.60;99.90;;;;;;5072177;28;20205;-78
2023/08/20 04:00:25;;;;;;;11.43;7.25;;;19.60;99.90;;;;;;5085220;28;20290;-78
2023/08/20 04:02:54;;;;;;;9.48;6.95;;;19.70;99.90;;;;;;5080536;28;20664;-80
2023/08/20 04:05:20;;;;;;;8.65;6.88;;;19.80;99.90;;;;;;5085265;28;20206;-79
2023/08/20 04:07:47;;;;;;;10.15;6.97;;;19.70;99.90;;;;;;5073200;28;20206;-79
2023/08/20 04:10:14;;;;;;;9.40;6.95;;;19.60;99.90;;;;;;5081127;28;20222;-80
2023/08/20 04:12:41;;;;;;;12.50;7.20;;;19.70;99.90;;;;;;5084928;28;20198;-80
2023/08/20 04:15:08;;;;;;;16.10;10.57;;;19.60;99.90;;;;;;5083955;28;20220;-77
2023/08/20 04:17:35;;;;;;;13.77;8.45;;;19.50;99.90;;;;;;5081527;28;20262;-78
2023/08/20 04:20:07;;;;;;;11.93;8.18;;;19.60;99.90;;;;;;5081399;28;20214;-79
2023/08/20 04:22:34;;;;;;;11.38;7.70;;;19.60;99.90;;;;;;5079803;28;20681;-78
2023/08/20 04:25:01;;;;;;;7.90;6.38;;;19.60;99.90;;;;;;5082770;28;20217;-78
2023/08/20 04:27:27;;;;;;;11.32;6.28;;;19.60;99.90;;;;;;5074175;28;20205;-79
2023/08/20 04:29:54;;;;;;;11.25;6.63;;;19.60;99.90;;;;;;5063525;28;20276;-78
2023/08/20 04:32:21;;;;;;;11.23;6.35;;;19.50;99.90;;;;;;5066088;28;20206;-79
2023/08/20 04:34:49;;;;;;;8.30;5.90;;;19.30;99.90;;;;;;5076497;28;20218;-79
2023/08/20 04:37:17;;;;;;;12.25;5.97;;;19.30;99.90;;;;;;5073649;28;20285;-79
2023/08/20 04:39:44;;;;;;;10.00;6.45;;;19.50;99.90;;;;;;5070589;28;20302;-79
2023/08/20 04:42:11;;;;;;;8.88;6.00;;;19.40;99.90;;;;;;5075074;28;20202;-79
2023/08/20 04:44:38;;;;;;;8.40;5.60;;;19.40;99.90;;;;;;5061205;28;20270;-80
2023/08/20 04:47:05;;;;;;;8.55;5.70;;;19.20;99.90;;;;;;5074080;28;20206;-78
2023/08/20 04:49:31;;;;;;;10.93;6.22;;;19.20;99.90;;;;;;5070652;28;20669;-78
2023/08/20 04:51:58;;;;;;;6.80;5.38;;;19.30;99.90;;;;;;5067822;28;20582;-79
2023/08/20 04:54:26;;;;;;;8.40;5.13;;;19.30;99.90;;;;;;5064891;28;20221;-78
2023/08/20 04:56:53;;;;;;;7.97;5.45;;;19.30;99.90;;;;;;5074470;28;20210;-80
2023/08/20 04:59:20;;;;;;;8.95;5.10;;;19.40;99.90;;;;;;5064267;28;20225;-78
2023/08/20 05:01:48;;;;;;;9.90;5.25;;;19.40;99.90;;;;;;5069082;28;20226;-77
2023/08/20 05:04:14;;;;;;;7.20;5.18;;;19.50;99.90;;;;;;5070583;28;20198;-78
2023/08/20 05:06:41;;;;;;;9.65;5.85;;;19.50;99.90;;;;;;5072097;28;20198;-79
2023/08/20 05:09:08;;;;;;;8.40;5.57;;;19.70;99.90;;;;;;5063159;28;20222;-79
2023/08/20 05:11:37;;;;;;;6.78;5.40;;;19.60;99.90;;;;;;5069298;28;20205;-79
2023/08/20 05:14:04;;;;;;;11.10;7.50;;;19.70;99.90;;;;;;5072210;28;20234;-79
2023/08/20 05:16:31;;;;;;;9.63;6.40;;;19.70;99.90;;;;;;5067968;28;20201;-80
2023/08/20 05:18:58;;;;;;;9.27;5.55;;;19.80;99.90;;;;;;5073525;28;20222;-79
2023/08/20 05:21:25;;;;;;;6.93;4.97;;;19.90;99.90;;;;;;5070939;28;20198;-79
2023/08/20 05:23:52;;;;;;;8.13;6.00;;;20.00;99.90;;;;;;5064665;28;20202;-79
2023/08/20 05:26:19;;;;;;;8.85;5.38;;;20.00;99.90;;;;;;5065289;28;20195;-79
2023/08/20 05:28:47;;;;;;;9.23;5.22;;;19.90;99.90;;;;;;5065612;28;20605;-78
2023/08/20 05:31:13;;;;;;;7.35;5.32;;;19.90;99.90;;;;;;5065983;28;20580;-79
2023/08/20 05:33:40;;;;;;;8.15;5.53;;;20.10;99.90;;;;;;5064953;28;20199;-79
2023/08/20 05:36:07;;;;;;;12.77;8.43;;;20.30;99.90;;;;;;5073781;28;20218;-79
2023/08/20 05:38:34;;;;;;;9.13;6.20;;;20.10;99.90;;;;;;5072266;28;20273;-79
2023/08/20 05:41:01;;;;;;;9.07;5.93;;;20.00;99.90;;;;;;5067585;28;20621;-78
2023/08/20 05:43:28;;;;;;;9.68;5.80;;;20.00;99.90;;;;;;5070506;28;20199;-82
2023/08/20 05:45:56;;;;;;;7.10;5.72;;;20.00;99.90;;;;;;5074646;28;20925;-79
2023/08/20 05:48:23;;;;;;;10.10;5.63;;;20.00;99.90;;;;;;5068932;28;20199;-78
2023/08/20 05:50:50;;;;;;;10.50;5.43;;;20.10;99.90;;;;;;5069136;28;20211;-79
2023/08/20 05:53:16;;;;;;;13.20;5.80;;;20.10;99.90;;;;;;5074440;28;20209;-80
2023/08/20 05:55:43;;;;;;;9.77;5.15;;;20.20;99.90;;;;;;5064871;28;20261;-78
2023/08/20 05:58:10;;;;;;;9.75;5.40;;;20.20;99.90;;;;;;5069079;28;20199;-79
2023/08/20 06:00:37;;;;;;;8.75;5.18;;;20.20;99.90;;;;;;5070008;28;20651;-79
2023/08/20 06:03:07;;;;;;;9.63;4.20;;;20.30;99.90;;;;;;5072889;28;20206;-78
2023/08/20 06:05:34;;;;;;;8.65;4.95;;;20.40;99.90;;;;;;5072380;28;20210;-80
2023/08/20 06:08:01;;;;;;;6.40;5.25;;;20.30;99.90;;;;;;5071833;28;20198;-80
2023/08/20 06:10:27;;;;;;;8.07;4.90;;;20.30;99.90;;;;;;5064348;28;20348;-80
2023/08/20 06:12:54;;;;;;;6.32;4.72;;;20.20;99.90;;;;;;5071335;28;20217;-80
2023/08/20 06:15:21;;;;;;;7.32;4.80;;;20.20;99.90;;;;;;5063584;28;20228;-80
2023/08/20 06:17:48;;;;;;;6.57;4.30;;;20.20;99.90;;;;;;5067917;28;20199;-79
2023/08/20 06:20:18;;;;;;;7.60;5.20;;;20.20;99.90;;;;;;5076229;28;20222;-79
2023/08/20 06:22:45;;;;;;;9.25;5.63;;;20.30;99.90;;;;;;5065573;28;20605;-80
2023/08/20 06:25:12;;;;;;;7.38;4.57;;;20.30;99.90;;;;;;5070770;28;20668;-79
2023/08/20 06:27:38;;;;;;;7.30;4.80;;;20.30;99.90;;;;;;5066135;28;20199;-78
2023/08/20 06:30:06;;;;;;;9.13;5.50;;;20.50;99.90;;;;;;5071404;28;20285;-79
2023/08/20 06:32:35;;;;;;;7.55;5.05;;;20.50;99.90;;;;;;5074378;28;20198;-80
2023/08/20 06:35:02;;;;;;;8.70;4.88;;;20.80;99.90;;;;;;5062891;28;20223;-79
2023/08/20 06:37:30;;;;;;;7.10;5.60;;;20.90;99.90;;;;;;5062939;28;20225;-78
2023/08/20 06:39:56;;;;;;;8.45;5.07;;;21.00;99.90;;;;;;5064978;28;20302;-80
2023/08/20 06:42:23;;;;;;;7.95;4.88;;;21.10;99.90;;;;;;5063353;28;20273;-80
2023/08/20 06:44:50;;;;;;;7.45;5.15;;;21.00;99.90;;;;;;5072202;28;20672;-80
2023/08/20 06:47:21;;;;;;;10.13;5.90;;;21.20;99.90;;;;;;5069579;28;20197;-80
2023/08/20 06:49:48;;;;;;;10.43;5.93;;;21.30;99.90;;;;;;5074134;28;20222;-79
2023/08/20 06:52:15;;;;;;;7.93;5.10;;;21.20;99.90;;;;;;5066182;28;20263;-78
2023/08/20 06:54:43;;;;;;;8.20;5.10;;;21.10;99.90;;;;;;5073918;28;20198;-78
2023/08/20 06:57:10;;;;;;;9.82;5.20;;;21.20;99.90;;;;;;5068425;28;20205;-80
2023/08/20 06:59:37;;;;;;;13.80;9.07;;;21.30;99.90;;;;;;5068329;28;20238;-80
2023/08/20 07:02:04;;;;;;;14.07;8.95;;;21.40;99.90;;;;;;5074856;28;20290;-78
2023/08/20 07:04:33;;;;;;;7.95;5.07;;;21.40;99.90;;;;;;5076209;28;20230;-79
2023/08/20 07:07:00;;;;;;;10.27;5.30;;;21.60;99.90;;;;;;5075340;28;20202;-80
2023/08/20 07:09:27;;;;;;;8.80;5.05;;;21.80;99.90;;;;;;5072317;28;20305;-79
2023/08/20 07:11:55;;;;;;;6.72;4.43;;;21.90;99.90;;;;;;5077139;28;20300;-80
2023/08/20 07:14:22;;;;;;;6.20;3.92;;;22.40;99.90;;;;;;5070491;28;20199;-79
2023/08/20 07:16:48;;;;;;;6.40;3.83;;;22.60;99.90;;;;;;5068370;28;20249;-78
2023/08/20 07:19:15;;;;;;;5.05;4.00;;;22.30;99.90;;;;;;5075132;28;20231;-79
2023/08/20 07:21:42;;;;;;;7.13;3.95;;;22.30;99.90;;;;;;5078641;28;20222;-77
2023/08/20 07:24:09;;;;;;;17.73;10.10;;;22.10;99.90;;;;;;5072717;28;20260;-78
2023/08/20 07:26:36;;;;;;;10.80;6.57;;;22.20;99.90;;;;;;5079594;28;20285;-79
2023/08/20 07:29:04;;;;;;;7.15;4.18;;;22.20;99.90;;;;;;5073713;28;20218;-79
2023/08/20 07:31:33;;;;;;;4.95;3.75;;;22.60;99.90;;;;;;5063450;28;20199;-78
2023/08/20 07:34:01;;;;;;;4.13;3.15;;;22.30;99.90;;;;;;5071083;28;20205;-79
2023/08/20 07:36:28;;;;;;;3.97;3.42;;;22.40;99.90;;;;;;5073844;28;20604;-78
2023/08/20 07:38:55;;;;;;;5.90;3.60;;;22.20;99.90;;;;;;5085054;28;20724;-78
2023/08/20 07:41:23;;;;;;;5.35;3.65;;;22.00;99.90;;;;;;5072276;28;20259;-78
2023/08/20 07:43:50;;;;;;;9.23;4.05;;;22.00;99.90;;;;;;5076146;28;20298;-78
2023/08/20 07:46:18;;;;;;;7.00;3.63;;;22.10;99.90;;;;;;5070731;28;20201;-79
2023/08/20 07:48:45;;;;;;;7.78;4.20;;;22.10;99.90;;;;;;5066195;28;20688;-78
2023/08/20 07:51:12;;;;;;;6.00;4.20;;;22.20;99.90;;;;;;5072762;28;20278;-79
2023/08/20 07:53:39;;;;;;;4.65;3.70;;;22.10;99.90;;;;;;5082544;28;20221;-79
2023/08/20 07:56:06;;;;;;;7.03;3.70;;;22.20;99.90;;;;;;5076134;28;20248;-79
2023/08/20 07:58:32;;;;;;;7.93;4.15;;;22.20;99.90;;;;;;5071785;28;20209;-79
2023/08/20 08:00:59;;;;;;;8.50;4.28;;;22.20;99.90;;;;;;5075532;28;20203;-80
2023/08/20 08:03:28;;;;;;;10.50;6.95;;;22.30;99.90;;;;;;5071547;28;20198;-79
2023/08/20 08:05:55;;;;;;;4.65;3.90;;;22.40;99.90;;;;;;5076351;28;20202;-78
2023/08/20 08:08:22;;;;;;;4.97;3.33;;;22.40;99.90;;;;;;5077730;28;20285;-79
2023/08/20 08:10:50;;;;;;;5.53;3.40;;;22.40;99.90;;;;;;5074686;28;20270;-79
2023/08/20 08:13:19;;;;;;;5.15;3.95;;;22.50;99.90;;;;;;5073931;28;20198;-79
2023/08/20 08:15:46;;;;;;;5.78;4.05;;;22.60;99.90;;;;;;5071046;28;20224;-80
2023/08/20 08:18:13;;;;;;;7.68;4.30;;;22.60;99.90;;;;;;5078744;28;20556;-78
2023/08/20 08:20:41;;;;;;;5.60;3.60;;;22.70;99.90;;;;;;5072248;28;20195;-78
2023/08/20 08:23:08;;;;;;;5.78;4.13;;;22.70;99.90;;;;;;5073047;28;20202;-78
2023/08/20 08:25:35;;;;;;;6.53;4.18;;;22.80;99.90;;;;;;5077595;28;20293;-78
2023/08/20 08:28:02;;;;;;;7.22;4.38;;;22.80;99.90;;;;;;5066678;28;20667;-79
2023/08/20 08:30:30;;;;;;;8.50;4.63;;;23.00;99.90;;;;;;5067071;28;20231;-79
2023/08/20 08:32:56;;;;;;;6.07;3.72;;;23.00;99.90;;;;;;5078824;28;20640;-78
2023/08/20 08:35:23;;;;;;;6.25;3.65;;;23.20;99.90;;;;;;5073389;28;20202;-78
2023/08/20 08:37:51;;;;;;;5.55;3.90;;;23.20;99.90;;;;;;5067062;28;20215;-78
2023/08/20 08:40:18;;;;;;;5.07;3.83;;;23.30;99.90;;;;;;5072365;28;20706;-79
2023/08/20 08:42:50;;;;;;;5.10;3.90;;;23.30;99.90;;;;;;5069217;28;20206;-78
2023/08/20 08:45:20;;;;;;;4.45;3.90;;;23.30;99.90;;;;;;5067479;28;20659;-81
2023/08/20 08:47:48;;;;;;;6.35;3.83;;;23.40;99.90;;;;;;5067811;28;20206;-81
2023/08/20 08:50:15;;;;;;;7.47;4.20;;;23.40;99.90;;;;;;5074668;28;20290;-80
2023/08/20 08:52:45;;;;;;;4.60;3.70;;;23.40;99.90;;;;;;5069759;28;20242;-80
2023/08/20 08:55:14;;;;;;;6.53;4.25;;;23.50;99.90;;;;;;5076552;28;20289;-78
2023/08/20 08:57:40;;;;;;;8.68;4.47;;;23.50;99.90;;;;;;5072744;28;20203;-79
2023/08/20 09:00:08;;;;;;;5.35;3.55;;;23.50;99.90;;;;;;5077963;28;20219;-78
2023/08/20 09:02:35;;;;;;;5.47;3.42;;;23.70;99.90;;;;;;5073991;28;20622;-79
2023/08/20 09:05:02;;;;;;;9.95;3.90;;;23.60;99.90;;;;;;5066769;28;20596;-78
2023/08/20 09:07:29;;;;;;;5.07;3.67;;;23.90;99.90;;;;;;5061980;28;20278;-79
2023/08/20 09:10:00;;;;;;;4.82;3.60;;;24.00;99.90;;;;;;5064769;28;20229;-79
2023/08/20 09:12:28;;;;;;;5.57;3.50;;;24.10;99.90;;;;;;5071138;28;20202;-80
2023/08/20 09:14:57;;;;;;;6.40;3.67;;;24.20;99.90;;;;;;5078914;28;20198;-80
2023/08/20 09:17:27;;;;;;;3.85;3.28;;;24.30;99.90;;;;;;5073178;28;20242;-80
2023/08/20 09:19:56;;;;;;;5.20;3.75;;;24.80;99.90;;;;;;5072004;28;20256;-80
2023/08/20 09:22:23;;;;;;;6.72;3.08;;;25.50;99.90;;;;;;5071296;28;20661;-80
2023/08/20 09:24:54;;;;;;;4.47;2.88;;;26.00;99.90;;;;;;5071477;28;20234;-81
2023/08/20 09:27:21;;;;;;;6.57;3.30;;;26.20;99.90;;;;;;5069640;28;20202;-79
2023/08/20 09:29:51;;;;;;;4.63;2.75;;;26.40;99.90;;;;;;5068562;28;20250;-80
2023/08/20 09:32:19;;;;;;;4.38;2.90;;;26.70;99.90;;;;;;5071703;28;20281;-79
2023/08/20 09:34:46;;;;;;;3.83;2.80;;;26.80;99.90;;;;;;5061973;28;20206;-80
2023/08/20 09:37:14;;;;;;;5.03;3.05;;;27.20;99.90;;;;;;5062560;28;20240;-79
2023/08/20 09:39:42;;;;;;;3.17;2.88;;;27.50;99.90;;;;;;5073983;28;20230;-79
2023/08/20 09:42:10;;;;;;;4.85;2.92;;;27.40;99.90;;;;;;5060311;28;20202;-79
2023/08/20 09:44:38;;;;;;;5.28;2.97;;;27.50;99.90;;;;;;5067276;28;20207;-86
2023/08/20 09:47:09;;;;;;;2.88;2.55;;;27.60;99.90;;;;;;5064970;28;20277;-79
2023/08/20 09:49:41;;;;;;;4.90;2.63;;;27.70;99.90;;;;;;5066173;28;20223;-79
2023/08/20 09:52:10;;;;;;;4.63;2.72;;;27.80;99.90;;;;;;5065014;28;20198;-80
2023/08/20 09:54:52;;;;;;;4.07;2.75;;;28.30;99.90;;;;;;5069109;28;20617;-80
2023/08/20 09:57:27;;;;;;;3.15;2.47;;;28.40;99.90;;;;;;5063170;28;20214;-80
2023/08/20 09:59:54;;;;;;;3.50;2.47;;;27.90;99.90;;;;;;5068255;28;20232;-81
2023/08/20 10:02:23;;;;;;;4.22;2.55;;;28.30;99.90;;;;;;5069011;28;20198;-80
2023/08/20 10:04:51;;;;;;;4.32;2.35;;;28.70;99.90;;;;;;5071437;28;20224;-79
2023/08/20 10:07:18;;;;;;;2.85;2.60;;;28.60;99.90;;;;;;5073599;28;20207;-81
2023/08/20 10:09:46;;;;;;;3.55;2.42;;;28.60;99.90;;;;;;5066096;28;20587;-81
2023/08/20 10:12:14;;;;;;;3.35;2.50;;;28.80;99.90;;;;;;5065870;28;20202;-81
2023/08/20 10:14:41;;;;;;;2.47;2.25;;;28.80;99.90;;;;;;5073486;28;20198;-82
2023/08/20 10:17:09;;;;;;;3.22;2.80;;;29.00;99.90;;;;;;5063204;28;20220;-81
2023/08/20 10:19:38;;;;;;;5.63;2.80;;;28.00;99.90;;;;;;5064009;28;20692;-80
2023/08/20 10:22:05;;;;;;;3.20;2.75;;;28.10;99.90;;;;;;5071360;28;20213;-80
2023/08/20 10:24:42;;;;;;;3.90;2.40;;;28.00;99.90;;;;;;5065051;28;20290;-80
2023/08/20 10:27:10;;;;;;;3.45;2.90;;;27.80;99.90;;;;;;5065795;28;20190;-79
2023/08/20 10:29:38;;;;;;;3.35;2.45;;;28.20;99.90;;;;;;5071375;28;20230;-78
2023/08/20 10:32:07;;;;;;;3.40;2.47;;;28.70;99.90;;;;;;5071880;28;20198;-79
2023/08/20 10:34:38;;;;;;;2.95;2.42;;;28.80;99.90;;;;;;5068937;28;20207;-81
2023/08/20 10:37:10;;;;;;;4.93;2.70;;;29.20;99.90;;;;;;5072849;28;20226;-81
2023/08/20 10:39:37;;;;;;;3.15;2.50;;;30.20;99.90;;;;;;5068712;28;20309;-80
2023/08/20 10:42:28;;;;;;;3.03;2.38;;;30.20;99.90;;;;;;5072307;28;20210;-80
2023/08/20 10:45:02;;;;;;;2.85;2.20;;;30.00;99.90;;;;;;5069274;28;20213;-81
2023/08/20 10:47:42;;;;;;;2.70;2.50;;;30.10;99.90;;;;;;5072444;28;20206;-80
2023/08/20 10:50:12;;;;;;;2.40;2.03;;;29.80;99.90;;;;;;5071731;28;20285;-79
2023/08/20 10:52:42;;;;;;;3.75;2.60;;;29.50;99.90;;;;;;5067071;28;20209;-79
2023/08/20 10:55:09;;;;;;;3.20;2.22;;;29.80;99.90;;;;;;5066304;28;20233;-80
2023/08/20 10:57:37;;;;;;;2.65;2.15;;;30.10;99.90;;;;;;5068860;28;20222;-80
2023/08/20 11:00:11;;;;;;;2.00;1.88;;;30.40;99.90;;;;;;5070059;28;20324;-80
2023/08/20 11:02:38;;;;;;;4.07;2.28;;;30.30;99.90;;;;;;5077657;28;20229;-79
2023/08/20 11:05:16;;;;;;;2.40;2.13;;;30.40;99.90;;;;;;5072808;28;20207;-79
2023/08/20 11:07:47;;;;;;;2.88;2.10;;;29.90;99.90;;;;;;5063994;28;20218;-80
2023/08/20 11:10:15;;;;;;;3.70;2.78;;;30.00;99.90;;;;;;5078554;28;20245;-80
2023/08/20 11:12:44;;;;;;;2.67;2.35;;;30.60;99.90;;;;;;5067237;28;20213;-80
2023/08/20 11:15:11;;;;;;;3.75;2.20;;;30.10;99.90;;;;;;5079416;28;20203;-80
2023/08/20 11:17:43;;;;;;;3.20;2.13;;;30.20;99.90;;;;;;5080783;28;20225;-80
2023/08/20 11:20:12;;;;;;;5.50;2.78;;;30.40;99.90;;;;;;5060488;28;20231;-79
2023/08/20 11:22:40;;;;;;;2.85;2.60;;;30.40;99.90;;;;;;5061794;28;20293;-80
2023/08/20 11:25:12;;;;;;;2.78;2.58;;;30.90;99.90;;;;;;5058943;28;20232;-79
2023/08/20 11:27:41;;;;;;;4.00;3.08;;;30.80;93.30;;;;;;5057587;28;20240;-82
2023/08/20 11:30:10;;;;;;;4.53;2.80;;;30.50;96.90;;;;;;5056935;28;21845;-80
2023/08/20 11:32:37;;;;;;;3.35;2.38;;;30.60;91.90;;;;;;5059645;28;20492;-80
2023/08/20 11:35:05;;;;;;;4.00;2.50;;;30.50;99.90;;;;;;5065713;28;20202;-80
2023/08/20 11:37:33;;;;;;;4.55;2.50;;;30.80;99.90;;;;;;5069685;28;20217;-82
2023/08/20 11:40:00;;;;;;;5.47;4.85;;;31.00;99.90;;;;;;5063966;28;20663;-80
2023/08/20 11:42:29;;;;;;;3.85;3.05;;;31.00;99.90;;;;;;5062370;28;20203;-80
2023/08/20 11:44:57;;;;;;;3.28;2.65;;;30.80;99.90;;;;;;5057129;28;20226;-79
2023/08/20 11:47:24;;;;;;;3.63;2.50;;;30.40;76.80;;;;;;5058841;28;20222;-80
2023/08/20 11:50:04;;;;;;;3.13;2.72;;;30.80;88.50;;;;;;5053974;28;20225;-77
2023/08/20 11:52:32;;;;;;;3.63;2.40;;;30.90;70.70;;;;;;5060595;28;20622;-80
2023/08/20 11:54:59;;;;;;;3.05;2.55;;;30.60;95.90;;;;;;5061457;28;20491;-79
2023/08/20 11:57:26;;;;;;;3.92;2.88;;;30.80;77.90;;;;;;5060741;28;20702;-78
2023/08/20 11:59:54;;;;;;;3.15;2.85;;;31.00;38.40;;;;;;5058535;28;20696;-78
2023/08/20 12:02:26;;;;;;;2.90;2.70;;;30.90;26.30;;;;;;5059827;28;20912;-79
2023/08/20 12:04:57;;;;;;;3.70;2.70;;;29.60;1.70;;;;;;5062710;28;20661;-80
2023/08/20 12:07:26;;;;;;;3.80;2.50;;;29.10;1.00;;;;;;5059410;28;20193;-79
2023/08/20 12:09:53;;;;;;;2.63;2.42;;;29.00;1.00;;;;;;5060068;28;20223;-79
2023/08/20 12:12:21;;;;;;;8.77;2.60;;;28.90;1.00;;;;;;5059133;28;20286;-79
2023/08/20 12:14:48;;;;;;;4.28;3.40;;;29.50;17.30;;;;;;5069368;28;20214;-78
2023/08/20 12:17:19;;;;;;;2.90;2.70;;;30.60;29.40;;;;;;5071241;28;20218;-79
2023/08/20 12:19:46;;;;;;;2.95;2.75;;;30.80;39.30;;;;;;5075529;28;20219;-79
2023/08/20 12:22:13;;;;;;;3.42;3.08;;;30.90;1.00;;;;;;5071283;28;20207;-79
2023/08/20 12:24:40;;;;;;;5.05;3.40;;;30.70;1.00;;;;;;5063146;28;20199;-78
2023/08/20 12:27:07;;;;;;;4.20;3.28;;;30.60;1.00;;;;;;5071228;28;20226;-78
2023/08/20 12:29:34;;;;;;;3.40;3.10;;;31.30;1.00;;;;;;5071500;28;20234;-79
2023/08/20 12:32:03;;;;;;;4.68;3.10;;;31.00;1.00;;;;;;5072575;28;20279;-79
2023/08/20 12:34:32;;;;;;;3.67;3.10;;;31.30;1.00;;;;;;5072453;28;20214;-80
2023/08/20 12:36:59;;;;;;;3.80;3.40;;;31.60;21.10;;;;;;5063058;28;20288;-78
2023/08/20 12:39:25;;;;;;;6.45;4.03;;;31.30;1.00;;;;;;5070748;28;20230;-78
2023/08/20 12:41:52;;;;;;;5.15;3.45;;;30.90;1.00;;;;;;5064434;28;20573;-78
2023/08/20 12:44:19;;;;;;;4.05;3.65;;;30.80;1.00;;;;;;5061290;28;20261;-78